createdAt,value
2023-02-04T00:00:58.712Z,99257.44
2023-02-04T00:03:47.892Z,99261.75
2023-02-04T00:06:35.549Z,99256.59
2023-02-04T00:09:22.837Z,99246.91
2023-02-04T00:12:11.132Z,99240.78
2023-02-04T00:14:59.092Z,99255.63
2023-02-04T00:17:47.399Z,99252.88
2023-02-04T00:20:36.747Z,99250.25
2023-02-04T00:23:24.860Z,99247.53
2023-02-04T00:26:14.940Z,99256.38
2023-02-04T00:29:02.789Z,99270.50
2023-02-04T00:31:50.165Z,99273.88
2023-02-04T00:34:37.851Z,99280.84
2023-02-04T00:37:28.226Z,99274.75
2023-02-04T00:40:16.350Z,99276.41
2023-02-04T00:43:04.217Z,99284.22
2023-02-04T00:45:51.705Z,99285.19
2023-02-04T00:48:39.337Z,99286.09
2023-02-04T00:51:26.898Z,99289.59
2023-02-04T00:54:16.721Z,99296.66
2023-02-04T00:57:04.643Z,99300.16
2023-02-04T00:59:52.425Z,99301.19
2023-02-04T01:02:40.779Z,99299.38
2023-02-04T01:05:28.992Z,99305.50
2023-02-04T01:08:16.338Z,99308.16
2023-02-04T01:11:05.347Z,99318.69
2023-02-04T01:13:54.386Z,99321.53
2023-02-04T01:16:41.821Z,99318.88
2023-02-04T01:19:29.237Z,99324.16
2023-02-04T01:22:16.667Z,99330.38
2023-02-04T01:25:04.493Z,99319.00
2023-02-04T01:27:53.438Z,99329.72
2023-02-04T01:30:40.956Z,99333.13
2023-02-04T01:33:28.255Z,99333.97
2023-02-04T01:36:21.507Z,99330.59
2023-02-04T01:39:11.401Z,99336.72
2023-02-04T01:42:01.033Z,99335.94
2023-02-04T01:44:54.554Z,99336.06
2023-02-04T01:47:42.608Z,99329.28
2023-02-04T01:50:31.138Z,99330.13
2023-02-04T01:53:24.245Z,99325.69
2023-02-04T01:56:21.059Z,99337.19
2023-02-04T01:59:14.535Z,99330.31
2023-02-04T02:02:03.707Z,99336.44
2023-02-04T02:04:51.446Z,99328.44
2023-02-04T02:07:39.074Z,99329.47
2023-02-04T02:10:28.229Z,99322.50
2023-02-04T02:13:19.795Z,99317.22
2023-02-04T02:16:07.824Z,99321.66
2023-02-04T02:18:57.755Z,99329.69
2023-02-04T02:21:54.469Z,99347.34
2023-02-04T02:24:43.610Z,99340.41
2023-02-04T02:27:31.776Z,99350.28
2023-02-04T02:30:20.393Z,99353.00
2023-02-04T02:33:09.113Z,99357.56
2023-02-04T02:35:56.943Z,99352.38
2023-02-04T02:38:44.686Z,99361.19
2023-02-04T02:41:33.890Z,99372.78
2023-02-04T02:44:21.571Z,99371.19
2023-02-04T02:47:15.937Z,99382.78
2023-02-04T02:50:03.506Z,99380.34
2023-02-04T02:52:54.318Z,99376.94
2023-02-04T02:55:42.879Z,99382.41
2023-02-04T02:58:36.196Z,99398.38
2023-02-04T03:01:23.916Z,99402.16
2023-02-04T03:04:13.227Z,99410.25
2023-02-04T03:07:12.175Z,99426.31
2023-02-04T03:10:00.249Z,99430.91
2023-02-04T03:12:49.009Z,99427.53
2023-02-04T03:15:41.328Z,99428.63
2023-02-04T03:18:29.235Z,99436.75
2023-02-04T03:21:16.754Z,99444.75
2023-02-04T03:24:08.080Z,99445.75
2023-02-04T03:26:56.239Z,99450.38
2023-02-04T03:29:47.974Z,99460.03
2023-02-04T03:32:37.378Z,99466.34
2023-02-04T03:35:24.764Z,99472.44
2023-02-04T03:38:12.171Z,99484.75
2023-02-04T03:41:06.312Z,99477.69
2023-02-04T03:43:57.031Z,99480.41
2023-02-04T03:46:44.591Z,99476.97
2023-02-04T03:49:35.397Z,99487.56
2023-02-04T03:52:23.346Z,99501.56
2023-02-04T03:55:11.776Z,99509.63
2023-02-04T03:57:59.745Z,99501.75
2023-02-04T04:00:47.490Z,99507.22
2023-02-04T04:03:35.175Z,99511.53
2023-02-04T04:06:23.951Z,99500.06
2023-02-04T04:09:11.504Z,99511.69
2023-02-04T04:11:59.074Z,99508.31
2023-02-04T04:14:46.787Z,99511.19
2023-02-04T04:17:34.395Z,99516.63
2023-02-04T04:20:25.434Z,99513.44
2023-02-04T04:23:14.336Z,99512.91
2023-02-04T04:26:01.992Z,99525.31
2023-02-04T04:28:49.816Z,99533.47
2023-02-04T04:31:37.605Z,99545.19
2023-02-04T04:34:25.579Z,99550.47
2023-02-04T04:37:13.260Z,99558.53
2023-02-04T04:40:03.059Z,99564.69
2023-02-04T04:42:50.601Z,99582.38
2023-02-04T04:45:38.103Z,99572.66
2023-02-04T04:48:25.633Z,99570.91
2023-02-04T04:51:12.966Z,99578.72
2023-02-04T04:54:01.072Z,99587.47
2023-02-04T04:56:50.266Z,99593.53
2023-02-04T04:59:38.098Z,99602.28
2023-02-04T05:02:25.693Z,99607.47
2023-02-04T05:05:15.860Z,99613.59
2023-02-04T05:08:03.543Z,99627.50
2023-02-04T05:10:51.149Z,99636.25
2023-02-04T05:13:40.040Z,99631.81
2023-02-04T05:16:27.938Z,99637.09
2023-02-04T05:19:15.512Z,99651.97
2023-02-04T05:22:03.214Z,99646.63
2023-02-04T05:24:50.516Z,99650.06
2023-02-04T05:27:37.956Z,99637.84
2023-02-04T05:30:26.940Z,99645.75
2023-02-04T05:33:14.820Z,99651.00
2023-02-04T05:36:02.390Z,99657.97
2023-02-04T05:38:49.996Z,99665.13
2023-02-04T05:41:37.681Z,99668.66
2023-02-04T05:44:27.257Z,99675.63
2023-02-04T05:47:16.631Z,99679.38
2023-02-04T05:50:04.499Z,99689.13
2023-02-04T05:52:52.223Z,99697.94
2023-02-04T05:55:39.777Z,99692.84
2023-02-04T05:58:33.188Z,99696.38
2023-02-04T06:01:20.974Z,99701.81
2023-02-04T06:04:09.859Z,99715.03
2023-02-04T06:06:57.612Z,99710.81
2023-02-04T06:09:45.112Z,99724.88
2023-02-04T06:12:32.684Z,99739.88
2023-02-04T06:15:20.543Z,99744.47
2023-02-04T06:18:08.480Z,99756.06
2023-02-04T06:20:57.702Z,99761.56
2023-02-04T06:23:45.317Z,99762.66
2023-02-04T06:26:32.815Z,99769.78
2023-02-04T06:29:20.416Z,99778.44
2023-02-04T06:32:08.086Z,99805.88
2023-02-04T06:34:55.544Z,99806.09
2023-02-04T06:37:45.664Z,99810.09
2023-02-04T06:40:33.585Z,99819.47
2023-02-04T06:43:21.691Z,99821.34
2023-02-04T06:46:09.228Z,99837.13
2023-02-04T06:48:57.314Z,99842.28
2023-02-04T06:51:44.777Z,99855.22
2023-02-04T06:54:33.656Z,99858.00
2023-02-04T06:57:21.460Z,99859.97
2023-02-04T07:00:12.929Z,99863.53
2023-02-04T07:03:00.781Z,99865.22
2023-02-04T07:05:48.372Z,99872.50
2023-02-04T07:08:35.892Z,99875.19
2023-02-04T07:11:24.662Z,99872.50
2023-02-04T07:14:12.264Z,99876.00
2023-02-04T07:16:59.857Z,99884.97
2023-02-04T07:19:47.375Z,99892.06
2023-02-04T07:22:35.054Z,99900.00
2023-02-04T07:25:22.422Z,99892.38
2023-02-04T07:28:11.279Z,99888.81
2023-02-04T07:30:59.052Z,99902.88
2023-02-04T07:33:46.768Z,99902.94
2023-02-04T07:36:34.301Z,99914.47
2023-02-04T07:39:21.578Z,99927.69
2023-02-04T07:42:09.091Z,99931.25
2023-02-04T07:44:58.072Z,99938.31
2023-02-04T07:47:45.594Z,99947.13
2023-02-04T07:50:33.173Z,99943.72
2023-02-04T07:53:20.888Z,99946.47
2023-02-04T07:56:08.707Z,99950.81
2023-02-04T07:58:56.509Z,99950.81
2023-02-04T08:01:45.432Z,99950.03
2023-02-04T08:04:33.134Z,99952.66
2023-02-04T08:07:20.775Z,99962.16
2023-02-04T08:10:11.360Z,99977.66
2023-02-04T08:12:59.121Z,99997.56
2023-02-04T08:15:46.672Z,99993.81
2023-02-04T08:18:35.893Z,99991.88
2023-02-04T08:21:23.717Z,99994.22
2023-02-04T08:24:11.256Z,99999.34
2023-02-04T08:26:59.374Z,99996.44
2023-02-04T08:29:46.687Z,99997.88
2023-02-04T08:32:34.354Z,100015.16
2023-02-04T08:35:23.345Z,100020.91
2023-02-04T08:38:11.001Z,100018.16
2023-02-04T08:40:59.924Z,100026.63
2023-02-04T08:43:47.724Z,100030.66
2023-02-04T08:46:38.025Z,100033.03
2023-02-04T08:49:25.675Z,100044.16
2023-02-04T08:52:14.528Z,100042.19
2023-02-04T08:55:02.160Z,100042.94
2023-02-04T08:57:49.838Z,100040.97
2023-02-04T09:00:37.072Z,100048.72
2023-02-04T09:03:24.625Z,100054.44
2023-02-04T09:06:13.395Z,100053.47
2023-02-04T09:09:02.683Z,100061.03
2023-02-04T09:11:50.096Z,100067.84
2023-02-04T09:14:37.728Z,100069.38
2023-02-04T09:17:25.232Z,100065.69
2023-02-04T09:20:13.672Z,100068.00
2023-02-04T09:23:02.355Z,100077.00
2023-02-04T09:25:51.910Z,100071.97
2023-02-04T09:28:40.162Z,100073.63
2023-02-04T09:31:27.652Z,100073.63
2023-02-04T09:34:15.182Z,100074.41
2023-02-04T09:37:02.574Z,100075.56
2023-02-04T09:39:50.266Z,100079.88
2023-02-04T09:42:39.625Z,100090.72
2023-02-04T09:45:30.856Z,100105.28
2023-02-04T09:48:19.536Z,100106.28
2023-02-04T09:51:09.474Z,100103.28
2023-02-04T09:54:09.980Z,100107.31
2023-02-04T09:56:59.378Z,100114.84
2023-02-04T09:59:48.642Z,100118.50
2023-02-04T10:02:36.927Z,100120.03
2023-02-04T10:05:30.886Z,100130.28
2023-02-04T10:08:21.562Z,100132.75
2023-02-04T10:11:10.198Z,100128.59
2023-02-04T10:13:57.988Z,100133.38
2023-02-04T10:16:59.142Z,100138.25
2023-02-04T10:19:47.646Z,100149.34
2023-02-04T10:22:42.623Z,100142.69
2023-02-04T10:25:30.318Z,100137.19
2023-02-04T10:28:18.367Z,100128.72
2023-02-04T10:31:08.408Z,100124.22
2023-02-04T10:34:07.908Z,100117.03
2023-02-04T10:36:57.946Z,100120.72
2023-02-04T10:39:45.971Z,100119.81
2023-02-04T10:42:34.078Z,100120.50
2023-02-04T10:45:27.194Z,100127.56
2023-02-04T10:48:19.968Z,100119.25
2023-02-04T10:51:13.882Z,100119.47
2023-02-04T10:54:18.862Z,100114.72
2023-02-04T10:57:19.465Z,100121.41
2023-02-04T11:00:18.986Z,100117.59
2023-02-04T11:03:12.921Z,100126.63
2023-02-04T11:06:01.983Z,100130.84
2023-02-04T11:08:54.605Z,100127.09
2023-02-04T11:11:48.218Z,100126.94
2023-02-04T11:14:35.631Z,100127.41
2023-02-04T11:17:29.780Z,100119.09
2023-02-04T11:20:33.979Z,100123.72
2023-02-04T11:23:37.299Z,100122.34
2023-02-04T11:26:37.715Z,100119.56
2023-02-04T11:29:34.894Z,100117.09
2023-02-04T11:32:34.818Z,100112.94
2023-02-04T11:35:27.444Z,100115.72
2023-02-04T11:38:29.313Z,100124.16
2023-02-04T11:41:25.822Z,100115.38
2023-02-04T11:44:16.849Z,100120.81
2023-02-04T11:47:10.169Z,100123.00
2023-02-04T11:50:04.197Z,100114.47
2023-02-04T11:52:51.881Z,100113.19
2023-02-04T11:55:49.280Z,100116.34
2023-02-04T11:58:42.072Z,100117.31
2023-02-04T12:01:35.326Z,100119.50
2023-02-04T12:04:26.224Z,100128.97
2023-02-04T12:07:22.702Z,100130.22
2023-02-04T12:10:23.357Z,100133.03
2023-02-04T12:13:19.078Z,100121.00
2023-02-04T12:16:08.526Z,100128.94
2023-02-04T12:18:57.403Z,100133.34
2023-02-04T12:21:47.930Z,100140.69
2023-02-04T12:24:35.660Z,100148.19
2023-02-04T12:27:23.105Z,100144.25
2023-02-04T12:30:13.496Z,100151.88
2023-02-04T12:33:01.576Z,100156.13
2023-02-04T12:35:52.082Z,100154.25
2023-02-04T12:38:39.562Z,100154.91
2023-02-04T12:41:27.171Z,100149.50
2023-02-04T12:44:15.257Z,100160.41
2023-02-04T12:47:02.933Z,100153.09
2023-02-04T12:49:51.278Z,100151.19
2023-02-04T12:52:40.432Z,100153.19
2023-02-04T12:55:30.577Z,100159.91
2023-02-04T12:58:18.958Z,100161.84
2023-02-04T13:01:07.392Z,100166.88
2023-02-04T13:03:55.415Z,100162.28
2023-02-04T13:06:43.575Z,100163.97
2023-02-04T13:09:33.972Z,100168.44
2023-02-04T13:12:21.557Z,100163.97
2023-02-04T13:15:10.825Z,100167.38
2023-02-04T13:17:59.544Z,100166.63
2023-02-04T13:20:48.157Z,100164.06
2023-02-04T13:23:36.456Z,100168.78
2023-02-04T13:26:26.301Z,100163.31
2023-02-04T13:29:14.932Z,100159.03
2023-02-04T13:32:02.740Z,100167.31
2023-02-04T13:34:50.391Z,100171.69
2023-02-04T13:37:38.598Z,100173.75
2023-02-04T13:40:26.277Z,100168.06
2023-02-04T13:43:15.041Z,100172.41
2023-02-04T13:46:04.281Z,100174.00
2023-02-04T13:48:51.789Z,100174.09
2023-02-04T13:51:39.239Z,100182.22
2023-02-04T13:54:26.933Z,100183.34
2023-02-04T13:57:17.028Z,100176.34
2023-02-04T14:00:09.710Z,100178.13
2023-02-04T14:02:57.581Z,100181.81
2023-02-04T14:05:45.217Z,100188.16
2023-02-04T14:08:34.066Z,100192.13
2023-02-04T14:11:22.605Z,100190.78
2023-02-04T14:14:10.348Z,100195.13
2023-02-04T14:17:00.531Z,100190.72
2023-02-04T14:19:49.783Z,100187.13
2023-02-04T14:22:39.452Z,100187.97
2023-02-04T14:25:30.548Z,100193.44
2023-02-04T14:28:19.315Z,100197.28
2023-02-04T14:31:08.116Z,100190.56
2023-02-04T14:33:58.625Z,100196.03
2023-02-04T14:36:47.323Z,100191.94
2023-02-04T14:39:36.023Z,100186.44
2023-02-04T14:42:24.526Z,100200.28
2023-02-04T14:45:14.968Z,100193.47
2023-02-04T14:48:03.416Z,100198.97
2023-02-04T14:50:53.062Z,100204.19
2023-02-04T14:53:46.134Z,100205.91
2023-02-04T14:56:39.171Z,100216.41
2023-02-04T14:59:27.227Z,100213.84
2023-02-04T15:02:16.145Z,100213.84
2023-02-04T15:05:07.570Z,100214.84
2023-02-04T15:07:57.243Z,100216.81
2023-02-04T15:10:45.426Z,100223.09
2023-02-04T15:13:33.486Z,100224.13
2023-02-04T15:16:21.870Z,100217.34
2023-02-04T15:19:09.593Z,100220.22
2023-02-04T15:21:58.059Z,100220.47
2023-02-04T15:24:49.995Z,100221.75
2023-02-04T15:27:38.191Z,100229.25
2023-02-04T15:30:25.597Z,100224.28
2023-02-04T15:33:13.993Z,100229.72
2023-02-04T15:36:02.084Z,100231.16
2023-02-04T15:38:49.944Z,100236.03
2023-02-04T15:41:39.131Z,100236.19
2023-02-04T15:44:27.098Z,100243.47
2023-02-04T15:47:14.802Z,100243.63
2023-02-04T15:50:04.054Z,100249.25
2023-02-04T15:52:51.708Z,100249.59
2023-02-04T15:55:39.166Z,100248.25
2023-02-04T15:58:28.131Z,100250.53
2023-02-04T16:01:15.893Z,100251.81
2023-02-04T16:04:03.459Z,100251.41
2023-02-04T16:06:58.341Z,100254.59
2023-02-04T16:09:46.610Z,100253.34
2023-02-04T16:12:34.566Z,100260.09
2023-02-04T16:15:23.876Z,100261.56
2023-02-04T16:18:11.270Z,100259.44
2023-02-04T16:20:59.741Z,100263.44
2023-02-04T16:23:48.388Z,100264.88
2023-02-04T16:26:35.875Z,100267.88
2023-02-04T16:29:23.602Z,100274.34
2023-02-04T16:32:12.610Z,100272.28
2023-02-04T16:35:04.472Z,100288.38
2023-02-04T16:37:51.886Z,100292.34
2023-02-04T16:40:39.624Z,100291.91
2023-02-04T16:43:27.499Z,100295.88
2023-02-04T16:46:16.113Z,100300.81
2023-02-04T16:49:06.042Z,100305.66
2023-02-04T16:51:53.968Z,100304.31
2023-02-04T16:54:47.295Z,100312.69
2023-02-04T16:57:35.098Z,100314.06
2023-02-04T17:00:23.725Z,100310.13
2023-02-04T17:03:12.422Z,100309.69
2023-02-04T17:06:01.306Z,100321.38
2023-02-04T17:08:49.012Z,100317.34
2023-02-04T17:11:37.454Z,100316.91
2023-02-04T17:14:25.436Z,100325.16
2023-02-04T17:17:13.104Z,100319.34
2023-02-04T17:20:01.100Z,100325.88
2023-02-04T17:22:50.574Z,100322.75
2023-02-04T17:25:38.155Z,100319.63
2023-02-04T17:28:26.181Z,100323.44
2023-02-04T17:31:13.775Z,100326.38
2023-02-04T17:34:03.077Z,100325.91
2023-02-04T17:36:50.833Z,100324.47
2023-02-04T17:39:39.963Z,100328.28
2023-02-04T17:42:28.491Z,100328.63
2023-02-04T17:45:16.477Z,100332.38
2023-02-04T17:48:05.102Z,100328.38
2023-02-04T17:50:53.281Z,100334.78
2023-02-04T17:53:41.372Z,100333.31
2023-02-04T17:56:30.468Z,100330.19
2023-02-04T17:59:17.837Z,100338.31
2023-02-04T18:02:24.371Z,100335.06
2023-02-04T18:05:17.001Z,100334.53
2023-02-04T18:08:16.170Z,100340.06
2023-02-04T18:11:04.113Z,100325.50
2023-02-04T18:13:53.248Z,100337.94
2023-02-04T18:16:41.669Z,100338.16
2023-02-04T18:19:36.970Z,100331.41
2023-02-04T18:22:28.366Z,100327.28
2023-02-04T18:25:21.780Z,100326.69
2023-02-04T18:28:16.711Z,100329.53
2023-02-04T18:31:29.920Z,100321.91
2023-02-04T18:34:23.730Z,100334.34
2023-02-04T18:37:29.835Z,100329.34
2023-02-04T18:40:26.428Z,100332.22
2023-02-04T18:43:30.600Z,100323.75
2023-02-04T18:46:26.784Z,100333.56
2023-02-04T18:49:26.803Z,100331.16
2023-02-04T18:52:19.921Z,100335.78
2023-02-04T18:55:24.814Z,100337.69
2023-02-04T18:58:31.127Z,100342.22
2023-02-04T19:01:27.509Z,100340.66
2023-02-04T19:04:23.721Z,100339.00
2023-02-04T19:07:17.198Z,100343.50
2023-02-04T19:10:28.314Z,100345.47
2023-02-04T19:13:22.111Z,100349.13
2023-02-04T19:16:25.807Z,100353.66
2023-02-04T19:19:38.451Z,100363.41
2023-02-04T19:22:46.053Z,100366.16
2023-02-04T19:25:36.169Z,100365.44
2023-02-04T19:28:31.006Z,100370.81
2023-02-04T19:31:19.501Z,100365.72
2023-02-04T19:34:25.216Z,100363.31
2023-02-04T19:37:24.528Z,100371.25
2023-02-04T19:40:39.256Z,100367.91
2023-02-04T19:43:36.921Z,100371.47
2023-02-04T19:46:28.018Z,100369.81
2023-02-04T19:49:24.168Z,100375.19
2023-02-04T19:52:41.430Z,100381.41
2023-02-04T19:55:58.640Z,100381.59
2023-02-04T19:58:49.099Z,100384.31
2023-02-04T20:01:46.282Z,100376.63
2023-02-04T20:04:47.272Z,100377.63
2023-02-04T20:07:40.779Z,100372.50
2023-02-04T20:10:38.683Z,100380.47
2023-02-04T20:13:32.666Z,100391.88
2023-02-04T20:17:04.162Z,100381.44
2023-02-04T20:20:08.204Z,100392.00
2023-02-04T20:23:04.931Z,100395.63
2023-02-04T20:26:02.193Z,100405.34
2023-02-04T20:36:48.843Z,100413.47
2023-02-04T20:39:52.399Z,100419.72
2023-02-04T20:43:06.295Z,100428.47
2023-02-04T20:46:57.395Z,100437.31
2023-02-04T20:49:55.857Z,100436.63
2023-02-04T20:53:37.297Z,100438.28
2023-02-04T20:57:07.989Z,100435.69
2023-02-04T21:00:07.268Z,100437.53
2023-02-04T21:07:19.334Z,100434.34
2023-02-04T21:13:57.247Z,100427.56
2023-02-04T21:17:27.697Z,100422.44
2023-02-04T21:20:19.757Z,100430.31
2023-02-04T21:23:15.456Z,100428.66
2023-02-04T21:26:37.042Z,100428.69
2023-02-04T21:32:41.034Z,100431.41
2023-02-04T21:35:30.769Z,100430.59
2023-02-04T21:38:23.678Z,100439.34
2023-02-04T21:41:18.979Z,100435.97
2023-02-04T21:44:16.124Z,100433.34
2023-02-04T21:47:08.330Z,100427.31
2023-02-04T21:50:01.825Z,100433.47
2023-02-04T21:53:11.468Z,100429.19
2023-02-04T21:56:12.158Z,100424.13
2023-02-04T21:59:01.352Z,100430.22
2023-02-04T22:01:51.029Z,100429.41
2023-02-04T22:04:48.019Z,100432.06
2023-02-04T22:07:36.706Z,100446.00
2023-02-04T22:10:32.297Z,100440.84
2023-02-04T22:13:45.762Z,100444.34
2023-02-04T22:16:57.955Z,100440.09
2023-02-04T22:19:49.824Z,100440.13
2023-02-04T22:22:39.117Z,100446.19
2023-02-04T22:25:33.859Z,100439.25
2023-02-04T22:28:51.820Z,100436.72
2023-02-04T22:32:14.343Z,100442.00
2023-02-04T22:35:17.427Z,100435.16
2023-02-04T22:38:15.908Z,100433.44
2023-02-04T22:41:21.628Z,100440.41
2023-02-04T22:47:14.784Z,100439.66
2023-02-04T22:50:06.217Z,100431.03
2023-02-04T22:52:53.894Z,100444.94
2023-02-04T22:55:45.660Z,100441.53
2023-02-04T22:59:02.168Z,100451.94
2023-02-04T23:01:54.211Z,100451.97
2023-02-04T23:04:57.083Z,100442.50
2023-02-04T23:07:45.003Z,100438.22
2023-02-04T23:10:33.085Z,100440.00
2023-02-04T23:13:20.943Z,100448.69
2023-02-04T23:16:14.597Z,100449.59
2023-02-04T23:19:16.127Z,100442.69
2023-02-04T23:22:11.399Z,100433.19
2023-02-04T23:25:04.208Z,100431.50
2023-02-04T23:28:07.090Z,100432.41
2023-02-04T23:30:57.227Z,100430.72
2023-02-04T23:33:45.218Z,100422.06
2023-02-04T23:36:36.387Z,100431.63
2023-02-04T23:39:25.670Z,100429.03
2023-02-04T23:42:13.875Z,100422.16
2023-02-04T23:45:01.566Z,100425.66
2023-02-04T23:47:49.271Z,100430.88
2023-02-04T23:50:36.735Z,100435.22
2023-02-04T23:53:24.554Z,100436.09
2023-02-04T23:56:13.630Z,100439.63
2023-02-04T23:59:01.160Z,100433.56
